Time;durP1;ratioP1;P1;durP2;ratioP2;P2;SDS_P1;SDS_P2;PMS_P1;PMS_P2;Temp;Humidity;BMP_temperature;BMP_pressure;BME280_temperature;BME280_humidity;BME280_pressure;Samples;Min_cycle;Max_cycle;Signal;HPM_P1;HPM_P2
2022/08/28 00:02:08;;;;;;;12.43;5.63;;;;;;;15.25;72.11;101876.25;5029874;28;20017;-80
2022/08/28 00:04:34;;;;;;;11.90;5.10;;;;;;;15.31;71.98;101876.59;5036973;28;20361;-78
2022/08/28 00:07:00;;;;;;;10.55;5.13;;;;;;;15.09;72.37;101861.06;5046104;28;20026;-77
2022/08/28 00:09:26;;;;;;;13.55;5.45;;;;;;;15.11;72.91;101869.59;5049708;28;20028;-78
2022/08/28 00:11:52;;;;;;;11.93;5.10;;;;;;;15.16;72.70;101884.91;5051504;28;20099;-80
2022/08/28 00:14:19;;;;;;;11.00;5.43;;;;;;;14.97;72.95;101888.22;5049062;28;20033;-79
2022/08/28 00:16:46;;;;;;;9.63;4.80;;;;;;;15.01;73.30;101885.19;5028712;28;20040;-78
2022/08/28 00:19:12;;;;;;;11.60;5.28;;;;;;;14.84;73.64;101881.38;5030708;28;20025;-78
2022/08/28 00:21:37;;;;;;;12.65;5.50;;;;;;;14.96;73.34;101891.75;5036149;28;20033;-79
2022/08/28 00:24:03;;;;;;;11.00;5.35;;;;;;;14.79;73.62;101891.38;5048902;28;20032;-78
2022/08/28 00:29:12;;;;;;;12.27;5.55;;;;;;;14.82;73.74;101880.69;5043561;28;20055;-78
2022/08/28 00:31:38;;;;;;;11.07;5.18;;;;;;;14.67;74.16;101887.16;5050650;28;20472;-78
2022/08/28 00:34:05;;;;;;;13.77;6.32;;;;;;;14.55;74.98;101880.34;5068577;28;20052;-78
2022/08/28 00:36:31;;;;;;;11.85;5.32;;;;;;;14.75;73.98;101884.78;5069127;28;20017;-78
2022/08/28 00:38:59;;;;;;;11.65;5.78;;;;;;;14.67;74.12;101884.56;5055518;28;20035;-79
2022/08/28 00:41:25;;;;;;;12.47;6.03;;;;;;;14.69;73.97;101885.28;5059661;28;20045;-78
2022/08/28 00:44:10;;;;;;;12.13;5.28;;;;;;;14.57;74.73;101876.66;5067973;28;20170;-78
2022/08/28 00:46:37;;;;;;;12.13;5.50;;;;;;;14.43;75.15;101883.91;5064616;28;20028;-78
2022/08/28 00:49:04;;;;;;;11.83;5.70;;;;;;;14.48;75.10;101873.97;5064150;28;20031;-78
2022/08/28 00:54:13;;;;;;;11.10;5.25;;;;;;;14.54;74.90;101883.91;5065953;28;20105;-77
2022/08/28 00:56:40;;;;;;;11.07;5.60;;;;;;;14.47;75.01;101885.38;5044819;28;20028;-78
2022/08/28 00:59:14;;;;;;;10.95;5.28;;;;;;;14.51;75.28;101881.56;5053408;28;20457;-80
2022/08/28 01:01:40;;;;;;;11.27;5.53;;;;;;;14.52;74.77;101883.22;5052519;28;20036;-78
2022/08/28 01:04:06;;;;;;;11.75;5.68;;;;;;;14.48;75.10;101876.59;5037687;28;20028;-81
2022/08/28 01:06:33;;;;;;;11.45;5.40;;;;;;;14.43;75.34;101882.13;5054760;28;20025;-78
2022/08/28 01:08:58;;;;;;;13.95;6.00;;;;;;;14.30;75.23;101884.91;5068229;28;20097;-78
2022/08/28 01:11:24;;;;;;;11.00;6.00;;;;;;;14.25;76.25;101888.84;5066822;28;20496;-76
2022/08/28 01:13:53;;;;;;;12.00;5.50;;;;;;;14.18;75.96;101883.28;5068869;28;20032;-78
2022/08/28 01:16:21;;;;;;;11.73;5.30;;;;;;;14.23;76.37;101888.97;5066996;28;20107;-77
2022/08/28 01:18:48;;;;;;;13.43;5.78;;;;;;;14.21;76.00;101890.84;5067882;28;20036;-77
2022/08/28 01:21:23;;;;;;;12.18;5.15;;;;;;;14.30;75.78;101873.66;5066760;28;20032;-78
2022/08/28 01:24:01;;;;;;;11.02;5.65;;;;;;;14.25;75.99;101892.28;5068347;28;20168;-78
2022/08/28 01:26:27;;;;;;;12.77;5.78;;;;;;;14.28;75.86;101897.25;5067406;28;20032;-80
2022/08/28 01:28:54;;;;;;;12.13;6.38;;;;;;;14.07;76.55;101883.31;5067685;28;20025;-78
2022/08/28 01:31:20;;;;;;;10.63;5.75;;;;;;;14.14;76.19;101894.09;5067386;28;20103;-78
2022/08/28 01:33:46;;;;;;;12.68;5.78;;;;;;;14.15;76.58;101895.75;5067530;28;20107;-79
2022/08/28 01:36:12;;;;;;;12.10;5.70;;;;;;;14.23;76.02;101898.59;5066773;28;20111;-78
2022/08/28 01:38:40;;;;;;;13.38;5.97;;;;;;;14.18;76.42;101901.56;5060501;28;20029;-80
2022/08/28 01:41:06;;;;;;;12.87;5.90;;;;;;;14.18;76.07;101898.94;5061501;28;20057;-79
2022/08/28 01:43:31;;;;;;;12.45;5.70;;;;;;;14.08;75.83;101895.41;5052286;28;20484;-80
2022/08/28 01:46:04;;;;;;;12.85;5.50;;;;;;;14.19;75.95;101903.22;5056868;28;20488;-76
2022/08/28 01:48:34;;;;;;;11.88;5.75;;;;;;;14.14;75.94;101900.13;5051463;28;20028;-78
2022/08/28 01:51:01;;;;;;;13.35;6.35;;;;;;;14.06;76.59;101905.16;5054253;28;20044;-78
2022/08/28 01:53:27;;;;;;;11.90;5.70;;;;;;;14.06;76.72;101897.31;5056647;28;20314;-80
2022/08/28 01:55:54;;;;;;;12.60;5.80;;;;;;;13.88;77.15;101903.97;5065964;28;20020;-77
2022/08/28 01:58:21;;;;;;;12.93;6.40;;;;;;;13.99;76.82;101903.94;5062296;28;20086;-79
2022/08/28 02:00:47;;;;;;;9.35;5.10;;;;;;;13.89;77.24;101900.44;5047160;28;20446;-77
2022/08/28 02:03:13;;;;;;;13.25;5.90;;;;;;;14.02;76.94;101895.88;5062821;28;20033;-78
2022/08/28 02:05:39;;;;;;;11.98;5.30;;;;;;;13.97;77.22;101895.44;5060865;28;20033;-76
2022/08/28 02:08:06;;;;;;;9.40;5.47;;;;;;;13.87;77.43;101899.69;5037580;28;20107;-78
2022/08/28 02:10:33;;;;;;;12.88;5.78;;;;;;;13.81;78.04;101899.22;5046967;28;20044;-78
2022/08/28 02:12:59;;;;;;;10.37;5.57;;;;;;;13.84;78.01;101905.16;5060473;28;20101;-78
2022/08/28 02:15:27;;;;;;;11.90;5.72;;;;;;;13.80;77.85;101902.78;5065369;28;20555;-77
2022/08/28 02:17:53;;;;;;;12.83;6.00;;;;;;;13.79;78.59;101908.94;5038557;28;20131;-78
2022/08/28 02:20:18;;;;;;;13.25;5.95;;;;;;;13.84;78.18;101907.78;5065998;28;20416;-78
2022/08/28 02:22:44;;;;;;;11.48;5.60;;;;;;;13.81;77.90;101904.44;5054996;28;20029;-78
2022/08/28 02:25:10;;;;;;;11.27;5.60;;;;;;;13.80;78.32;101908.00;5066542;28;20032;-77
2022/08/28 02:27:37;;;;;;;12.23;5.78;;;;;;;13.77;78.41;101913.47;5065902;28;20495;-78
2022/08/28 02:30:07;;;;;;;14.98;6.22;;;;;;;13.66;79.58;101910.88;5066445;28;20036;-78
2022/08/28 02:32:33;;;;;;;13.35;5.68;;;;;;;13.76;78.55;101904.00;5064998;28;20032;-78
2022/08/28 02:34:58;;;;;;;10.85;5.75;;;;;;;13.68;78.78;101901.13;5067089;28;20035;-80
2022/08/28 02:37:24;;;;;;;13.57;6.00;;;;;;;13.78;78.45;101914.31;5066218;28;20039;-78
2022/08/28 02:39:55;;;;;;;11.43;5.88;;;;;;;13.69;78.64;101918.44;5066292;28;20070;-77
2022/08/28 02:42:20;;;;;;;13.98;6.43;;;;;;;13.61;79.22;101907.78;5065278;28;20056;-78
2022/08/28 02:44:45;;;;;;;10.82;6.22;;;;;;;13.63;79.22;101916.31;5066417;28;20024;-77
2022/08/28 02:47:11;;;;;;;12.15;6.15;;;;;;;13.72;78.51;101915.59;5059561;28;20506;-78
2022/08/28 02:49:37;;;;;;;11.02;6.32;;;;;;;13.68;78.53;101919.38;5055485;28;20029;-77
2022/08/28 02:52:03;;;;;;;13.93;6.22;;;;;;;13.66;78.64;101905.66;5058588;28;20667;-77
2022/08/28 02:54:29;;;;;;;13.60;6.32;;;;;;;13.62;78.42;101909.44;5046885;28;20033;-79
2022/08/28 02:56:55;;;;;;;10.93;6.03;;;;;;;13.57;78.74;101911.56;5059675;28;20043;-78
2022/08/28 02:59:21;;;;;;;12.93;6.20;;;;;;;13.56;78.92;101909.91;5065837;28;20035;-78
2022/08/28 03:01:47;;;;;;;11.23;6.15;;;;;;;13.46;79.19;101914.16;5065714;28;20028;-78
2022/08/28 03:04:12;;;;;;;11.55;6.30;;;;;;;13.50;79.54;101910.38;5065563;28;20056;-78
2022/08/28 03:06:38;;;;;;;11.80;5.97;;;;;;;13.61;78.54;101918.22;5063810;28;20135;-79
2022/08/28 03:09:04;;;;;;;13.68;6.30;;;;;;;13.46;79.55;101914.16;5055524;28;20115;-78
2022/08/28 03:11:30;;;;;;;13.57;6.50;;;;;;;13.44;79.91;101914.28;5065056;28;20033;-78
2022/08/28 03:13:55;;;;;;;15.20;6.18;;;;;;;13.43;79.43;101904.00;5066051;28;20035;-79
2022/08/28 03:16:21;;;;;;;12.80;6.50;;;;;;;13.54;79.39;101917.03;5046565;28;20023;-78
2022/08/28 03:18:46;;;;;;;13.65;6.40;;;;;;;13.45;79.62;101904.69;5065374;28;20086;-79
2022/08/28 03:21:12;;;;;;;12.88;6.30;;;;;;;13.55;79.64;101919.50;5062089;28;20477;-76
2022/08/28 03:23:38;;;;;;;11.43;6.05;;;;;;;13.49;79.72;101914.75;5060856;28;20035;-77
2022/08/28 03:26:13;;;;;;;13.43;6.22;;;;;;;13.53;79.98;101925.75;5064111;28;20361;-78
2022/08/28 03:28:43;;;;;;;12.65;6.13;;;;;;;13.50;80.37;101920.81;5066021;28;20032;-78
2022/08/28 03:31:12;;;;;;;13.45;6.40;;;;;;;13.36;80.45;101923.63;5047486;28;20095;-78
2022/08/28 03:33:40;;;;;;;15.80;5.85;;;;;;;13.46;80.64;101924.59;5065154;28;20465;-75
2022/08/28 03:36:06;;;;;;;12.88;6.15;;;;;;;13.32;80.42;101928.25;5052737;28;20028;-80
2022/08/28 03:38:32;;;;;;;10.45;6.10;;;;;;;13.32;80.94;101932.63;5069144;28;20042;-77
2022/08/28 03:40:58;;;;;;;13.90;6.32;;;;;;;13.31;80.50;101925.78;5069368;28;20531;-77
2022/08/28 03:43:24;;;;;;;12.45;6.07;;;;;;;13.44;80.12;101926.50;5068379;28;20039;-77
2022/08/28 03:45:54;;;;;;;10.68;6.00;;;;;;;13.43;80.44;101935.25;5050825;28;20032;-79
2022/08/28 03:48:19;;;;;;;10.68;5.82;;;;;;;13.34;80.45;101933.34;5048779;28;20034;-75
2022/08/28 03:50:46;;;;;;;10.70;6.10;;;;;;;13.28;80.60;101932.84;5060070;28;20029;-79
2022/08/28 03:53:12;;;;;;;12.00;5.90;;;;;;;13.34;80.05;101935.94;5066788;28;20038;-78
2022/08/28 03:55:40;;;;;;;11.60;6.38;;;;;;;13.38;80.51;101934.78;5048036;28;20036;-77
2022/08/28 03:58:07;;;;;;;11.00;5.88;;;;;;;13.17;81.15;101930.19;5059695;28;20480;-78
2022/08/28 04:00:33;;;;;;;12.07;6.57;;;;;;;13.23;81.52;101940.19;5052119;28;20082;-78
2022/08/28 04:02:59;;;;;;;11.52;5.78;;;;;;;13.27;80.37;101941.63;5051301;28;20032;-77
2022/08/28 04:05:24;;;;;;;11.80;6.00;;;;;;;13.26;81.34;101934.75;5068267;28;20035;-78
2022/08/28 04:07:51;;;;;;;11.63;6.07;;;;;;;13.18;80.97;101944.88;5051771;28;20029;-77
2022/08/28 04:10:17;;;;;;;12.45;6.10;;;;;;;13.21;81.61;101947.28;5066783;28;20081;-77
2022/08/28 04:12:43;;;;;;;12.77;6.53;;;;;;;13.18;81.41;101952.69;5067308;28;20367;-79
2022/08/28 04:15:09;;;;;;;11.13;6.15;;;;;;;13.25;81.54;101953.13;5067411;28;20032;-75
2022/08/28 04:17:37;;;;;;;12.30;5.95;;;;;;;13.15;81.67;101947.72;5066785;28;20103;-78
2022/08/28 04:20:04;;;;;;;12.90;6.80;;;;;;;13.16;81.85;101949.38;5067530;28;20028;-77
2022/08/28 04:22:29;;;;;;;11.65;6.10;;;;;;;13.13;81.64;101939.19;5065701;28;20090;-77
2022/08/28 04:24:54;;;;;;;9.95;6.30;;;;;;;13.06;82.35;101953.59;5064762;28;20480;-78
2022/08/28 04:27:20;;;;;;;9.85;6.03;;;;;;;13.16;82.13;101954.59;5066850;28;20020;-78
2022/08/28 04:29:47;;;;;;;12.25;6.28;;;;;;;13.16;81.88;101943.34;5066325;28;20639;-78
2022/08/28 04:32:12;;;;;;;10.85;6.55;;;;;;;13.18;82.13;101942.25;5069075;28;20037;-78
2022/08/28 04:34:38;;;;;;;13.23;6.78;;;;;;;13.20;81.88;101945.59;5068511;28;20032;-77
2022/08/28 04:37:04;;;;;;;11.13;6.70;;;;;;;13.07;82.86;101939.63;5068460;28;20052;-77
2022/08/28 04:39:30;;;;;;;12.60;6.32;;;;;;;13.07;82.70;101944.84;5055086;28;20050;-77
2022/08/28 04:41:55;;;;;;;13.23;6.60;;;;;;;13.07;82.53;101939.63;5047877;28;20047;-77
2022/08/28 04:44:21;;;;;;;10.80;6.30;;;;;;;13.08;82.93;101946.53;5050317;28;20119;-78
2022/08/28 04:46:46;;;;;;;12.32;6.68;;;;;;;13.09;82.71;101952.56;5066329;28;20463;-76
2022/08/28 04:49:13;;;;;;;11.90;6.30;;;;;;;13.06;83.10;101957.97;5050393;28;20036;-77
2022/08/28 04:51:40;;;;;;;11.68;6.30;;;;;;;13.17;82.43;101958.84;5061081;28;20062;-78
2022/08/28 04:54:06;;;;;;;12.35;6.15;;;;;;;13.13;82.50;101954.81;5050151;28;20460;-77
2022/08/28 04:56:32;;;;;;;13.52;6.05;;;;;;;13.01;83.07;101955.72;5061524;28;20028;-77
2022/08/28 04:59:00;;;;;;;14.02;5.95;;;;;;;13.03;83.20;101959.88;5046151;28;20107;-77
2022/08/28 05:01:25;;;;;;;12.93;6.57;;;;;;;13.16;83.16;101970.22;5059527;28;20400;-76
2022/08/28 05:03:57;;;;;;;13.63;6.28;;;;;;;13.19;82.48;101970.00;5068047;28;20486;-77
2022/08/28 05:06:25;;;;;;;12.02;6.15;;;;;;;13.08;82.81;101961.31;5067381;28;20040;-76
2022/08/28 05:08:51;;;;;;;10.65;6.38;;;;;;;13.11;83.21;101964.50;5060644;28;20171;-76
2022/08/28 05:11:21;;;;;;;13.98;6.43;;;;;;;12.97;83.63;101975.13;5059409;28;20511;-76
2022/08/28 05:13:48;;;;;;;11.07;5.70;;;;;;;13.03;83.98;101970.28;5048391;28;20044;-77
2022/08/28 05:16:15;;;;;;;12.77;6.75;;;;;;;12.97;84.27;101975.97;5061048;28;20103;-78
2022/08/28 05:18:41;;;;;;;12.82;6.20;;;;;;;13.07;83.36;101970.06;5048345;28;20028;-76
2022/08/28 05:21:19;;;;;;;13.40;6.50;;;;;;;13.06;83.91;101974.44;5063935;28;20037;-83
2022/08/28 05:23:45;;;;;;;10.98;5.97;;;;;;;13.07;83.82;101970.88;5048418;28;20029;-76
2022/08/28 05:26:13;;;;;;;12.82;6.05;;;;;;;13.09;83.86;101984.63;5042732;28;20036;-78
2022/08/28 05:28:39;;;;;;;12.93;6.32;;;;;;;13.15;83.77;101984.19;5060097;28;20044;-77
2022/08/28 05:31:13;;;;;;;12.63;6.15;;;;;;;13.12;83.85;101984.41;5067130;28;20032;-78
2022/08/28 05:33:39;;;;;;;13.68;6.38;;;;;;;13.18;84.04;101988.31;5067287;28;20043;-79
2022/08/28 05:36:06;;;;;;;11.68;6.10;;;;;;;13.19;83.49;101984.78;5067139;28;20155;-77
2022/08/28 05:38:32;;;;;;;12.60;6.40;;;;;;;13.22;83.38;101988.03;5067100;28;20036;-76
2022/08/28 05:40:57;;;;;;;12.27;6.40;;;;;;;13.12;83.55;101979.19;5066861;28;20044;-78
2022/08/28 05:43:24;;;;;;;14.55;6.47;;;;;;;13.27;83.03;102001.53;5034949;28;20036;-76
2022/08/28 05:45:58;;;;;;;12.75;6.50;;;;;;;13.32;83.17;101997.78;5051840;28;20021;-78
2022/08/28 05:48:26;;;;;;;11.90;6.03;;;;;;;13.32;83.22;101995.16;5067157;28;20821;-78
2022/08/28 05:50:52;;;;;;;13.83;6.13;;;;;;;13.33;83.33;101991.59;5066363;28;20017;-77
2022/08/28 05:53:18;;;;;;;14.98;6.40;;;;;;;13.36;83.26;101996.56;5066380;28;20025;-78
2022/08/28 05:55:44;;;;;;;11.43;5.82;;;;;;;13.40;83.72;102000.63;5064050;28;20131;-76
2022/08/28 05:58:27;;;;;;;11.68;6.07;;;;;;;13.46;83.22;101992.34;5067750;28;20048;-78
2022/08/28 06:00:53;;;;;;;13.07;6.57;;;;;;;13.47;83.54;101992.22;5065633;28;20476;-77
2022/08/28 06:03:19;;;;;;;11.85;5.75;;;;;;;13.59;83.04;101994.84;5066598;28;20039;-78
2022/08/28 06:05:44;;;;;;;13.15;6.35;;;;;;;13.69;82.46;101998.44;5048992;28;20033;-76
2022/08/28 06:08:10;;;;;;;12.07;6.15;;;;;;;13.70;83.05;102000.91;5036580;28;20024;-77
2022/08/28 06:10:42;;;;;;;12.48;6.20;;;;;;;13.66;83.17;101994.28;5063332;28;20023;-78
2022/08/28 06:13:08;;;;;;;10.48;5.55;;;;;;;13.81;81.87;102013.97;5067208;28;20024;-79
2022/08/28 06:15:40;;;;;;;11.63;6.07;;;;;;;13.76;82.74;102004.81;5055073;28;20033;-75
2022/08/28 06:18:05;;;;;;;12.40;5.95;;;;;;;13.80;82.77;101999.25;5049465;28;20377;-78
2022/08/28 06:20:41;;;;;;;12.10;5.97;;;;;;;13.90;82.90;102012.44;5048373;28;20465;-78
2022/08/28 06:23:14;;;;;;;12.40;5.60;;;;;;;13.95;81.88;102009.50;5052061;28;20107;-78
2022/08/28 06:25:45;;;;;;;11.52;5.18;;;;;;;14.03;82.21;102017.53;5049738;28;20280;-77
2022/08/28 06:28:13;;;;;;;12.20;5.35;;;;;;;14.10;81.83;102023.94;5032068;28;20372;-80
2022/08/28 06:30:40;;;;;;;11.40;5.20;;;;;;;14.07;82.01;102008.53;5049730;28;20112;-79
2022/08/28 06:33:06;;;;;;;10.65;5.10;;;;;;;14.27;81.63;102020.00;5037421;28;20036;-78
2022/08/28 06:35:33;;;;;;;11.88;5.13;;;;;;;14.29;81.14;102024.19;5053895;28;20032;-78
2022/08/28 06:37:59;;;;;;;11.02;5.07;;;;;;;14.49;81.02;102021.81;5056227;28;20036;-77
2022/08/28 06:40:25;;;;;;;10.85;5.18;;;;;;;14.53;80.65;102031.91;5050955;28;20048;-78
2022/08/28 06:42:51;;;;;;;12.68;5.57;;;;;;;14.53;80.50;102031.06;5066953;28;20143;-78
2022/08/28 06:45:16;;;;;;;11.23;4.60;;;;;;;14.59;80.09;102020.13;5061241;28;20417;-79
2022/08/28 06:47:42;;;;;;;11.77;4.78;;;;;;;14.70;80.36;102027.13;5056878;28;20040;-77
2022/08/28 06:50:08;;;;;;;12.27;5.07;;;;;;;14.73;79.79;102027.69;5048273;28;20466;-78
2022/08/28 06:52:33;;;;;;;10.32;4.63;;;;;;;14.85;79.56;102031.94;5066238;28;20032;-78
2022/08/28 06:54:58;;;;;;;12.85;4.97;;;;;;;14.90;79.51;102023.72;5064517;28;20048;-78
2022/08/28 06:57:25;;;;;;;11.48;4.60;;;;;;;15.03;79.26;102023.56;5063663;28;20384;-79
2022/08/28 06:59:59;;;;;;;9.68;4.22;;;;;;;15.05;79.15;102027.72;5059860;28;20362;-79
2022/08/28 07:02:25;;;;;;;12.00;4.30;;;;;;;15.11;78.58;102027.22;5055201;28;20028;-79
2022/08/28 07:04:51;;;;;;;10.90;4.28;;;;;;;15.20;77.93;102030.88;5052340;28;20498;-79
2022/08/28 07:07:16;;;;;;;11.90;4.32;;;;;;;15.28;77.74;102032.84;5059105;28;20027;-79
2022/08/28 07:09:42;;;;;;;10.43;4.35;;;;;;;15.37;77.65;102038.16;5052388;28;20037;-80
2022/08/28 07:12:07;;;;;;;10.88;4.15;;;;;;;15.40;76.55;102037.88;5050536;28;20056;-79
2022/08/28 07:14:33;;;;;;;12.55;4.10;;;;;;;15.47;76.40;102037.38;5051532;28;20534;-79
2022/08/28 07:16:58;;;;;;;10.75;4.05;;;;;;;15.60;75.71;102040.63;5050034;28;20016;-79
2022/08/28 07:19:24;;;;;;;9.27;3.80;;;;;;;15.66;75.33;102037.53;5052940;28;20122;-78
2022/08/28 07:21:49;;;;;;;8.98;3.40;;;;;;;15.74;74.64;102036.88;5050552;28;20047;-80
2022/08/28 07:24:16;;;;;;;10.25;3.47;;;;;;;15.81;75.19;102041.47;5049961;28;20090;-80
2022/08/28 07:26:43;;;;;;;9.35;3.30;;;;;;;15.91;75.07;102047.59;5048542;28;20029;-80
2022/08/28 07:29:10;;;;;;;9.40;3.53;;;;;;;16.02;74.74;102048.47;5032510;28;20033;-80
2022/08/28 07:31:36;;;;;;;8.55;3.25;;;;;;;16.09;73.80;102044.34;5051909;28;20059;-80
2022/08/28 07:34:01;;;;;;;8.68;2.95;;;;;;;16.19;73.37;102040.00;5049889;28;20029;-78
2022/08/28 07:36:27;;;;;;;6.78;2.58;;;;;;;16.31;72.98;102046.78;5054168;28;20026;-79
2022/08/28 07:38:58;;;;;;;9.52;3.10;;;;;;;16.34;72.57;102053.53;5054265;28;20034;-81
2022/08/28 07:41:26;;;;;;;9.40;2.80;;;;;;;16.45;72.40;102041.16;5054533;28;20044;-79
2022/08/28 07:46:37;;;;;;;9.85;2.63;;;;;;;16.61;71.11;102050.31;5045058;28;20040;-80
2022/08/28 07:49:03;;;;;;;9.35;2.90;;;;;;;16.69;70.71;102038.22;5052461;28;20025;-78
2022/08/28 07:51:29;;;;;;;9.73;3.03;;;;;;;16.74;70.94;102037.81;5049721;28;20108;-79
2022/08/28 07:53:56;;;;;;;9.63;2.92;;;;;;;16.84;70.73;102043.06;5048288;28;20108;-80
2022/08/28 07:56:23;;;;;;;8.00;2.75;;;;;;;16.84;68.95;102041.28;5054456;28;20439;-80
2022/08/28 07:58:48;;;;;;;8.00;2.67;;;;;;;16.99;70.33;102034.69;5052665;28;20464;-78
2022/08/28 08:01:16;;;;;;;8.65;2.90;;;;;;;17.17;70.52;102047.94;5050551;28;20056;-80
2022/08/28 08:03:42;;;;;;;8.77;2.70;;;;;;;17.28;69.58;102049.59;5051287;28;20032;-79
2022/08/28 08:06:09;;;;;;;8.95;2.42;;;;;;;17.36;68.79;102047.06;5030238;28;20369;-79
2022/08/28 08:08:35;;;;;;;9.20;2.75;;;;;;;17.46;68.67;102063.63;5042825;28;20411;-78
2022/08/28 08:11:08;;;;;;;8.95;2.50;;;;;;;17.51;67.97;102063.22;5057726;28;20133;-77
2022/08/28 08:13:35;;;;;;;7.53;2.40;;;;;;;17.61;66.15;102061.41;5055281;28;20098;-79
2022/08/28 08:16:14;;;;;;;8.90;2.50;;;;;;;17.66;65.61;102060.97;5062679;28;20048;-78
2022/08/28 08:18:40;;;;;;;7.45;2.40;;;;;;;17.59;64.19;102062.50;5054879;28;20036;-78
2022/08/28 08:21:10;;;;;;;8.30;2.45;;;;;;;17.59;64.35;102067.75;5038941;28;20041;-77
2022/08/28 08:23:37;;;;;;;6.60;2.20;;;;;;;17.73;64.60;102070.00;5059211;28;20040;-79
2022/08/28 08:26:05;;;;;;;7.28;2.40;;;;;;;17.67;64.17;102075.78;5069699;28;20024;-77
2022/08/28 08:28:33;;;;;;;9.25;2.63;;;;;;;17.68;63.55;102077.41;5065780;28;20027;-77
2022/08/28 08:31:19;;;;;;;7.40;2.08;;;;;;;17.77;64.96;102077.41;5064291;28;20459;-78
2022/08/28 08:33:50;;;;;;;7.75;2.58;;;;;;;17.68;63.68;102074.81;5057800;28;20108;-78
2022/08/28 08:36:19;;;;;;;6.60;2.40;;;;;;;17.91;63.79;102072.69;5044284;28;20077;-78
2022/08/28 08:38:45;;;;;;;6.85;2.35;;;;;;;18.04;63.96;102081.09;5065500;28;20464;-78
2022/08/28 08:41:31;;;;;;;7.50;2.17;;;;;;;18.03;63.72;102076.81;5065385;28;20518;-78
2022/08/28 08:44:14;;;;;;;11.02;2.35;;;;;;;18.04;61.43;102076.66;5063928;28;20573;-79
2022/08/28 08:46:48;;;;;;;10.07;2.50;;;;;;;18.21;62.67;102074.25;5065305;28;20035;-77
2022/08/28 08:49:20;;;;;;;7.00;2.20;;;;;;;18.35;62.95;102076.41;5069163;28;20479;-77
2022/08/28 08:51:53;;;;;;;6.82;2.17;;;;;;;18.40;61.81;102063.66;5054087;28;20163;-79
2022/08/28 08:54:20;;;;;;;6.28;2.20;;;;;;;18.51;61.48;102079.22;5050497;28;20025;-78
2022/08/28 08:56:48;;;;;;;8.23;2.38;;;;;;;18.40;60.86;102074.16;5065941;28;20480;-79
2022/08/28 08:59:20;;;;;;;6.07;2.00;;;;;;;18.47;61.38;102074.41;5061764;28;20063;-77
2022/08/28 09:02:13;;;;;;;8.20;2.20;;;;;;;18.60;61.95;102071.44;5054296;28;20029;-77
2022/08/28 09:04:42;;;;;;;5.25;2.15;;;;;;;18.57;60.35;102070.75;5035104;28;20484;-78
2022/08/28 09:07:57;;;;;;;7.00;2.42;;;;;;;18.69;61.52;102067.94;5061373;28;20033;-77
2022/08/28 09:10:31;;;;;;;7.05;2.17;;;;;;;18.61;60.36;102067.84;5005843;28;20056;-77
2022/08/28 09:13:09;;;;;;;6.93;2.45;;;;;;;18.46;59.00;102072.75;5005669;28;20129;-78
2022/08/28 09:15:43;;;;;;;5.93;1.83;;;;;;;18.52;60.10;102075.63;5002210;28;20303;-77
2022/08/28 09:18:19;;;;;;;7.90;2.25;;;;;;;18.34;58.75;102069.47;5004560;28;20105;-78
2022/08/28 09:20:55;;;;;;;6.80;2.10;;;;;;;18.44;60.02;102067.63;5003594;28;20200;-77
2022/08/28 09:23:22;;;;;;;7.25;2.10;;;;;;;18.72;60.48;102072.91;5005289;28;20018;-78
2022/08/28 09:25:58;;;;;;;6.43;2.03;;;;;;;18.86;58.61;102067.13;5005060;28;20205;-78
2022/08/28 09:28:43;;;;;;;6.25;2.10;;;;;;;19.04;59.57;102073.25;4978431;28;20041;-78
2022/08/28 09:31:11;;;;;;;6.85;2.08;;;;;;;19.23;57.18;102068.81;5005184;28;20033;-78
2022/08/28 09:33:41;;;;;;;6.35;2.08;;;;;;;19.37;57.97;102079.59;5005142;28;20049;-79
2022/08/28 09:36:32;;;;;;;7.05;1.92;;;;;;;19.52;58.19;102077.25;5004483;28;20366;-79
2022/08/28 09:39:09;;;;;;;8.55;1.90;;;;;;;19.67;57.28;102068.81;5003701;28;20049;-78
2022/08/28 09:44:53;;;;;;;6.53;2.20;;;;;;;19.88;56.98;102056.13;4999172;28;20292;-76
2022/08/28 09:47:47;;;;;;;6.38;2.13;;;;;;;19.83;56.63;102071.56;5066573;28;20032;-77
2022/08/28 09:50:26;;;;;;;6.57;2.20;;;;;;;19.85;56.15;102065.19;5048773;28;20306;-77
2022/08/28 09:52:54;;;;;;;5.57;1.88;;;;;;;19.93;55.55;102072.28;5062002;28;20017;-79
2022/08/28 09:55:29;;;;;;;;;;;;;;;20.13;57.82;102065.81;5067033;28;20032;-76
2022/08/28 09:57:55;;;;;;;4.85;1.70;;;;;;;19.93;54.03;102071.47;5063848;28;19916;-76
2022/08/28 10:00:21;;;;;;;5.43;2.05;;;;;;;20.00;54.12;102067.22;5064496;28;20478;-77
2022/08/28 10:03:24;;;;;;;6.57;1.75;;;;;;;20.12;55.08;102069.41;5049583;28;20036;-76
2022/08/28 10:06:12;;;;;;;6.70;2.00;;;;;;;20.16;53.66;102060.22;5044807;28;20190;-77
2022/08/28 10:08:58;;;;;;;5.30;1.95;;;;;;;20.43;54.48;102067.09;5061961;28;20047;-76
2022/08/28 10:11:35;;;;;;;5.68;1.80;;;;;;;20.50;53.05;102072.56;5061308;28;20044;-76
2022/08/28 10:14:40;;;;;;;7.72;2.05;;;;;;;20.72;52.37;102063.25;5046748;28;20143;-77
2022/08/28 10:17:19;;;;;;;6.97;1.90;;;;;;;20.50;50.51;102067.31;5055283;28;20036;-75
2022/08/28 10:20:16;;;;;;;5.00;1.80;;;;;;;20.71;52.71;102071.31;5055960;28;20097;-76
2022/08/28 10:23:03;;;;;;;4.50;1.60;;;;;;;20.77;50.08;102068.88;5059099;28;20308;-75
2022/08/28 10:25:51;;;;;;;6.78;2.03;;;;;;;20.51;49.62;102071.59;5062881;28;20067;-75
2022/08/28 10:28:40;;;;;;;5.82;1.80;;;;;;;20.72;50.50;102070.34;5036400;28;20068;-74
2022/08/28 10:31:35;;;;;;;6.28;1.90;;;;;;;20.87;51.50;102068.69;5060344;28;20024;-77
2022/08/28 10:34:37;;;;;;;5.45;1.60;;;;;;;21.05;50.22;102061.50;5053303;28;20052;-76
2022/08/28 10:37:12;;;;;;;4.80;1.67;;;;;;;21.14;48.62;102070.22;5038027;28;20170;-75
2022/08/28 10:39:48;;;;;;;4.32;1.55;;;;;;;21.07;48.47;102058.69;5057869;28;20024;-75
2022/08/28 10:42:24;;;;;;;3.75;1.60;;;;;;;21.26;48.51;102073.34;5058373;28;20032;-76
2022/08/28 10:45:04;;;;;;;6.88;1.80;;;;;;;21.33;47.96;102066.44;5060670;28;20029;-76
2022/08/28 10:47:33;;;;;;;4.60;1.70;;;;;;;21.29;48.10;102067.75;5057103;28;20032;-75
2022/08/28 10:50:05;;;;;;;4.75;1.50;;;;;;;21.25;47.92;102063.78;5065052;28;20036;-80
2022/08/28 10:52:45;;;;;;;3.95;1.70;;;;;;;21.33;48.32;102069.09;5065360;28;20028;-76
2022/08/28 10:55:20;;;;;;;4.93;1.70;;;;;;;21.37;49.28;102070.41;5063139;28;20508;-76
2022/08/28 10:58:06;;;;;;;6.43;2.03;;;;;;;21.26;49.06;102071.53;5040579;28;20032;-77
2022/08/28 11:00:33;;;;;;;5.45;1.70;;;;;;;21.08;49.03;102066.41;5066198;28;20527;-76
2022/08/28 11:03:07;;;;;;;3.95;1.50;;;;;;;21.13;48.77;102074.66;5056074;28;20040;-76
2022/08/28 11:06:00;;;;;;;6.22;1.88;;;;;;;21.15;49.12;102070.03;5046706;28;20025;-77
2022/08/28 11:08:35;;;;;;;5.50;2.25;;;;;;;21.26;48.79;102073.34;5042389;28;20818;-78
2022/08/28 11:11:11;;;;;;;5.65;1.92;;;;;;;21.43;48.18;102075.03;5045989;28;20393;-78
2022/08/28 11:13:45;;;;;;;5.15;1.95;;;;;;;21.53;45.97;102073.03;5047173;28;20873;-76
2022/08/28 11:16:17;;;;;;;5.18;1.80;;;;;;;21.68;47.48;102076.66;5050723;28;20134;-77
2022/08/28 11:19:13;;;;;;;4.45;1.65;;;;;;;21.92;47.35;102075.78;5037683;28;20030;-78
2022/08/28 11:21:45;;;;;;;4.35;1.58;;;;;;;21.87;46.18;102072.81;5049630;28;20025;-77
2022/08/28 11:24:37;;;;;;;6.03;1.70;;;;;;;22.03;47.19;102071.97;5066136;28;20031;-77
2022/08/28 11:27:21;;;;;;;4.25;1.60;;;;;;;22.02;45.63;102070.28;5044371;28;20053;-76
2022/08/28 11:29:57;;;;;;;5.53;1.73;;;;;;;21.98;46.09;102072.47;5050720;28;20024;-76
2022/08/28 11:32:32;;;;;;;3.92;1.42;;;;;;;21.63;44.99;102086.91;5061313;28;20368;-77
2022/08/28 11:35:00;;;;;;;3.85;1.60;;;;;;;21.67;45.38;102071.53;5062352;28;20024;-78
2022/08/28 11:37:43;;;;;;;5.75;1.80;;;;;;;21.81;46.86;102072.69;5062295;28;20038;-76
2022/08/28 11:40:17;;;;;;;4.18;1.50;;;;;;;21.96;46.59;102076.25;5059825;28;20057;-77
2022/08/28 11:42:47;;;;;;;4.05;1.55;;;;;;;22.10;45.06;102067.66;5061739;28;20024;-78
2022/08/28 11:45:42;;;;;;;5.65;1.65;;;;;;;22.08;45.92;102059.06;5059762;28;20039;-76